Time;durP1;ratioP1;P1;durP2;ratioP2;P2;SDS_P1;SDS_P2;PMS_P1;PMS_P2;Temp;Humidity;BMP_temperature;BMP_pressure;BME280_temperature;BME280_humidity;BME280_pressure;Samples;Min_cycle;Max_cycle;Signal;HPM_P1;HPM_P2
2023/07/23 00:03:03;;;;;;;16.80;5.45;;;;;;;;;;6198028;22;20086;-93
2023/07/23 00:06:21;;;;;;;;;;;;;;;;;;;;;
2023/07/23 00:19:24;;;;;;;21.38;5.20;;;;;;;;;;6285543;22;20008;-89
2023/07/23 00:22:12;;;;;;;18.67;5.75;;;;;;;;;;6290223;22;20000;-93
2023/07/23 00:25:06;;;;;;;12.85;6.03;;;;;;;;;;6289978;22;20008;-95
2023/07/23 00:27:42;;;;;;;13.52;6.13;;;;;;;;;;6290956;22;20094;-95
2023/07/23 00:30:08;;;;;;;19.58;6.50;;;;;;;;;;6286423;22;20015;-94
2023/07/23 00:32:35;;;;;;;15.73;5.55;;;;;;;;;;6282171;22;20019;-94
2023/07/23 00:35:09;;;;;;;13.48;5.90;;;;;;;;;;6283598;22;20003;-93
2023/07/23 00:37:38;;;;;;;15.18;6.45;;;;;;;;;;6281447;22;20440;-92
2023/07/23 00:40:10;;;;;;;21.35;6.28;;;;;;;;;;6282175;22;20774;-94
2023/07/23 00:42:40;;;;;;;11.93;5.32;;;;;;;;;;6260297;22;20341;-92
2023/07/23 00:45:06;;;;;;;18.88;5.85;;;;;;;;;;6264018;22;20018;-93
2023/07/23 00:47:36;;;;;;;13.02;5.53;;;;;;;;;;6287952;22;20012;-94
2023/07/23 00:50:05;;;;;;;17.05;6.22;;;;;;;;;;6286817;22;20007;-94
2023/07/23 00:55:59;;;;;;;18.40;5.53;;;;;;;;;;6254913;22;20042;-94
2023/07/23 00:58:25;;;;;;;11.07;5.07;;;;;;;;;;6281080;22;20062;-93
2023/07/23 01:00:52;;;;;;;17.42;6.57;;;;;;;;;;6281783;22;20004;-93
2023/07/23 01:03:18;;;;;;;9.07;4.25;;;;;;;;;;6258269;22;20018;-93
2023/07/23 01:05:48;;;;;;;13.55;6.07;;;;;;;;;;6285288;22;20003;-95
2023/07/23 01:08:15;;;;;;;14.18;5.93;;;;;;;;;;6256353;22;20098;-94
2023/07/23 01:10:42;;;;;;;12.45;6.05;;;;;;;;;;6283199;22;20007;-95
2023/07/23 01:13:08;;;;;;;14.10;4.18;;;;;;;;;;6281491;22;20007;-95
2023/07/23 01:15:37;;;;;;;24.38;6.20;;;;;;;;;;6281639;22;20396;-94
2023/07/23 01:18:10;;;;;;;20.05;5.45;;;;;;;;;;6256312;22;20012;-94
2023/07/23 01:20:46;;;;;;;8.63;3.65;;;;;;;;;;6282650;22;20050;-94
2023/07/23 01:23:18;;;;;;;17.88;5.95;;;;;;;;;;6281361;22;20018;-95
2023/07/23 01:25:46;;;;;;;15.32;5.13;;;;;;;;;;6283692;22;20007;-95
2023/07/23 01:28:15;;;;;;;15.40;5.82;;;;;;;;;;6281294;22;20008;-95
2023/07/23 01:30:41;;;;;;;15.75;5.45;;;;;;;;;;6258141;22;20015;-91
2023/07/23 01:33:10;;;;;;;12.80;6.22;;;;;;;;;;6257377;22;20023;-94
2023/07/23 01:35:38;;;;;;;13.77;5.55;;;;;;;;;;6281748;22;20008;-95
2023/07/23 01:38:14;;;;;;;14.95;5.43;;;;;;;;;;6255820;22;20008;-95
2023/07/23 01:40:41;;;;;;;13.68;5.68;;;;;;;;;;6282709;22;20034;-94
2023/07/23 01:43:08;;;;;;;14.00;5.85;;;;;;;;;;6281189;22;20012;-94
2023/07/23 01:45:35;;;;;;;14.77;6.47;;;;;;;;;;6257201;22;20456;-94
2023/07/23 01:48:07;;;;;;;14.05;5.50;;;;;;;;;;6285018;22;20003;-93
2023/07/23 01:50:41;;;;;;;14.40;5.80;;;;;;;;;;6282146;22;20008;-94
2023/07/23 01:53:08;;;;;;;16.95;4.78;;;;;;;;;;6260259;22;20054;-94
2023/07/23 01:55:35;;;;;;;10.10;4.13;;;;;;;;;;6260535;22;20476;-96
2023/07/23 01:58:08;;;;;;;10.52;5.03;;;;;;;;;;6285310;22;20469;-95
2023/07/23 02:00:34;;;;;;;11.45;5.15;;;;;;;;;;6283510;22;20501;-95
2023/07/23 02:03:00;;;;;;;13.13;4.85;;;;;;;;;;6284502;22;20349;-95
2023/07/23 02:05:26;;;;;;;12.43;4.75;;;;;;;;;;6258369;22;20004;-95
2023/07/23 02:07:53;;;;;;;14.68;5.05;;;;;;;;;;6285103;22;20042;-95
2023/07/23 02:10:20;;;;;;;13.07;5.53;;;;;;;;;;6259512;22;20016;-94
2023/07/23 02:12:50;;;;;;;13.20;4.95;;;;;;;;;;6284468;22;20085;-96
2023/07/23 02:15:25;;;;;;;9.38;5.22;;;;;;;;;;6284716;22;20067;-94
2023/07/23 02:17:54;;;;;;;13.18;5.75;;;;;;;;;;6285008;22;20341;-94
2023/07/23 02:20:36;;;;;;;11.70;4.60;;;;;;;;;;6260620;22;20020;-95
2023/07/23 02:23:02;;;;;;;4.00;2.38;;;;;;;;;;6262131;22;20430;-96
2023/07/23 02:25:36;;;;;;;14.13;5.25;;;;;;;;;;6285363;22;20429;-94
2023/07/23 02:28:02;;;;;;;11.13;4.97;;;;;;;;;;6285160;22;20014;-95
2023/07/23 02:30:29;;;;;;;7.00;3.60;;;;;;;;;;6260588;22;20078;-95
2023/07/23 02:32:59;;;;;;;12.55;4.65;;;;;;;;;;6259086;22;20007;-95
2023/07/23 02:35:37;;;;;;;11.02;4.18;;;;;;;;;;6284272;22;20003;-95
2023/07/23 02:38:12;;;;;;;8.18;4.40;;;;;;;;;;6261891;22;20019;-95
2023/07/23 02:40:41;;;;;;;10.25;4.43;;;;;;;;;;6260038;22;20015;-94
2023/07/23 02:43:13;;;;;;;12.18;5.18;;;;;;;;;;6259768;22;20016;-95
2023/07/23 02:45:42;;;;;;;14.50;5.90;;;;;;;;;;6259181;22;20107;-94
2023/07/23 02:48:11;;;;;;;11.45;5.20;;;;;;;;;;6284645;22;20007;-96
2023/07/23 02:50:39;;;;;;;16.02;4.82;;;;;;;;;;6284120;22;20023;-95
2023/07/23 02:53:16;;;;;;;14.65;5.43;;;;;;;;;;6284208;22;20000;-95
2023/07/23 02:55:42;;;;;;;12.60;4.90;;;;;;;;;;6259278;22;20012;-95
2023/07/23 02:58:17;;;;;;;14.40;5.70;;;;;;;;;;6286024;22;20039;-95
2023/07/23 03:00:45;;;;;;;9.25;3.90;;;;;;;;;;6286332;22;20294;-95
2023/07/23 03:03:11;;;;;;;10.30;3.50;;;;;;;;;;6284562;22;20039;-96
2023/07/23 03:08:27;;;;;;;15.38;6.05;;;;;;;;;;6253030;22;20372;-95
2023/07/23 03:10:57;;;;;;;19.90;6.53;;;;;;;;;;6261042;22;20210;-96
2023/07/23 03:13:26;;;;;;;14.63;5.25;;;;;;;;;;6284017;22;20031;-96
2023/07/23 03:15:58;;;;;;;13.43;5.65;;;;;;;;;;6282923;22;19999;-96
2023/07/23 03:18:28;;;;;;;16.77;5.15;;;;;;;;;;6262001;22;20038;-96
2023/07/23 03:21:01;;;;;;;13.30;5.95;;;;;;;;;;6284728;22;20015;-95
2023/07/23 03:23:30;;;;;;;15.93;5.65;;;;;;;;;;6260315;22;20016;-96
2023/07/23 03:26:05;;;;;;;14.02;6.43;;;;;;;;;;6259563;22;20131;-96
2023/07/23 03:28:38;;;;;;;17.08;6.75;;;;;;;;;;6285587;22;20083;-96
2023/07/23 03:31:06;;;;;;;21.73;5.28;;;;;;;;;;6284715;22;20042;-96
2023/07/23 03:33:36;;;;;;;17.45;6.07;;;;;;;;;;6258805;22;20004;-96
2023/07/23 03:36:27;;;;;;;20.20;6.95;;;;;;;;;;6260995;22;20011;-96
2023/07/23 03:38:55;;;;;;;15.23;6.40;;;;;;;;;;6138103;23;20001;-96
2023/07/23 03:41:24;;;;;;;15.68;6.00;;;;;;;;;;6242476;22;20015;-96
2023/07/23 03:43:58;;;;;;;16.23;7.10;;;;;;;;;;6285188;22;20014;-96
2023/07/23 03:46:24;;;;;;;17.58;7.03;;;;;;;;;;6256627;22;20038;-96
2023/07/23 03:48:51;;;;;;;16.00;5.88;;;;;;;;;;6259372;22;20091;-96
2023/07/23 03:51:25;;;;;;;17.98;5.90;;;;;;;;;;6255357;22;20078;-96
2023/07/23 03:53:54;;;;;;;21.42;6.68;;;;;;;;;;6284721;22;20058;-96
2023/07/23 03:56:46;;;;;;;18.05;6.78;;;;;;;;;;6257895;22;20034;-95
2023/07/23 03:59:17;;;;;;;19.50;5.93;;;;;;;;;;6215587;22;20273;-95
2023/07/23 04:05:07;;;;;;;18.17;6.85;;;;;;;;;;6275221;22;20083;-95
2023/07/23 04:07:51;;;;;;;9.95;5.10;;;;;;;;;;6264406;22;20126;-95
2023/07/23 04:10:17;;;;;;;13.57;5.80;;;;;;;;;;6284468;22;20465;-95
2023/07/23 04:12:44;;;;;;;22.75;7.95;;;;;;;;;;6284535;22;20010;-96
2023/07/23 04:15:10;;;;;;;15.30;6.72;;;;;;;;;;6284190;22;20416;-96
2023/07/23 04:17:39;;;;;;;20.13;7.43;;;;;;;;;;6259721;22;20007;-95
2023/07/23 04:20:23;;;;;;;15.95;6.55;;;;;;;;;;6260622;22;20010;-96
2023/07/23 04:22:55;;;;;;;23.83;6.95;;;;;;;;;;6284545;22;20008;-96
2023/07/23 04:25:22;;;;;;;23.65;6.70;;;;;;;;;;6285424;22;20012;-95
2023/07/23 04:27:59;;;;;;;23.55;7.78;;;;;;;;;;6260516;22;20008;-96
2023/07/23 04:30:27;;;;;;;17.75;5.80;;;;;;;;;;6260979;22;20020;-96
2023/07/23 04:32:57;;;;;;;7.30;4.60;;;;;;;;;;6285603;22;20014;-96
2023/07/23 04:35:27;;;;;;;15.90;6.82;;;;;;;;;;6283826;22;20368;-95
2023/07/23 04:37:57;;;;;;;26.50;6.97;;;;;;;;;;6272215;22;20031;-95
2023/07/23 04:40:34;;;;;;;18.20;6.47;;;;;;;;;;6284894;22;20008;-96
2023/07/23 04:43:00;;;;;;;23.35;7.90;;;;;;;;;;6284161;22;20019;-96
2023/07/23 04:45:37;;;;;;;19.15;6.90;;;;;;;;;;6282811;22;20006;-96
2023/07/23 04:48:11;;;;;;;24.70;6.90;;;;;;;;;;6283286;22;20004;-96
2023/07/23 04:50:48;;;;;;;14.98;6.20;;;;;;;;;;6283576;22;20008;-96
2023/07/23 04:53:24;;;;;;;17.35;6.85;;;;;;;;;;6258720;22;20086;-96
2023/07/23 04:55:53;;;;;;;13.70;4.55;;;;;;;;;;6259159;22;20038;-96
2023/07/23 04:58:27;;;;;;;16.98;6.28;;;;;;;;;;6253179;22;20015;-95
2023/07/23 05:01:06;;;;;;;;;;;;;;;;;;;;;
2023/07/23 05:03:35;;;;;;;23.25;7.20;;;;;;;;;;6282541;22;20031;-95
2023/07/23 05:06:25;;;;;;;19.65;7.57;;;;;;;;;;6257997;22;20090;-96
2023/07/23 05:09:06;;;;;;;;;;;;;;;;;;;;;
2023/07/23 05:17:27;;;;;;;18.60;7.07;;;;;;;;;;6248984;22;20014;-95
2023/07/23 05:20:06;;;;;;;18.95;5.63;;;;;;;;;;6258882;22;20019;-95
2023/07/23 05:22:45;;;;;;;16.73;5.53;;;;;;;;;;6282466;22;20024;-96
2023/07/23 05:25:30;;;;;;;23.10;7.65;;;;;;;;;;6257088;22;20047;-95
2023/07/23 05:28:07;;;;;;;17.52;6.47;;;;;;;;;;6282849;22;20007;-96
2023/07/23 05:30:41;;;;;;;22.40;8.68;;;;;;;;;;6283540;22;20003;-96
2023/07/23 05:33:20;;;;;;;24.23;7.68;;;;;;;;;;6284703;22;20043;-96
2023/07/23 05:35:55;;;;;;;22.80;7.95;;;;;;;;;;6285842;22;20054;-96
2023/07/23 05:38:25;;;;;;;25.42;7.93;;;;;;;;;;6283291;22;20488;-96
2023/07/23 05:41:02;;;;;;;18.33;7.00;;;;;;;;;;6280974;22;20601;-96
2023/07/23 05:43:34;;;;;;;17.05;7.65;;;;;;;;;;6259394;22;20022;-95
2023/07/23 05:46:05;;;;;;;22.10;8.20;;;;;;;;;;6259336;22;20078;-95
2023/07/23 05:48:55;;;;;;;21.63;8.20;;;;;;;;;;6285343;22;20019;-95
2023/07/23 05:51:29;;;;;;;22.77;8.20;;;;;;;;;;6263970;22;20012;-96
2023/07/23 05:53:56;;;;;;;20.77;7.93;;;;;;;;;;6285047;22;20000;-95
2023/07/23 05:56:26;;;;;;;22.80;8.30;;;;;;;;;;6253941;22;20012;-96
2023/07/23 05:58:57;;;;;;;21.50;8.93;;;;;;;;;;6225175;22;20004;-96
2023/07/23 06:01:44;;;;;;;14.48;7.60;;;;;;;;;;6282959;22;20045;-95
2023/07/23 06:04:15;;;;;;;20.30;8.38;;;;;;;;;;6285034;22;20091;-96
2023/07/23 06:06:41;;;;;;;25.55;7.85;;;;;;;;;;6284770;22;20487;-96
2023/07/23 06:09:09;;;;;;;23.02;7.93;;;;;;;;;;6286620;22;20426;-96
2023/07/23 06:11:39;;;;;;;20.92;8.52;;;;;;;;;;6256322;22;20384;-95
2023/07/23 06:14:09;;;;;;;34.83;9.27;;;;;;;;;;6284411;22;20008;-96
2023/07/23 06:16:38;;;;;;;22.42;8.13;;;;;;;;;;6259890;22;20029;-96
2023/07/23 06:19:30;;;;;;;16.95;6.65;;;;;;;;;;6260596;22;19999;-95
2023/07/23 06:21:56;;;;;;;19.77;8.57;;;;;;;;;;6280092;22;20442;-95
2023/07/23 06:25:07;;;;;;;19.75;8.07;;;;;;;;;;6283421;22;20507;-95
2023/07/23 06:27:36;;;;;;;22.58;8.45;;;;;;;;;;6277951;22;20011;-95
2023/07/23 06:30:03;;;;;;;26.60;8.25;;;;;;;;;;6283171;22;20012;-96
2023/07/23 06:32:29;;;;;;;23.90;8.63;;;;;;;;;;6285136;22;20014;-95
2023/07/23 06:34:58;;;;;;;18.75;7.88;;;;;;;;;;6259184;22;20012;-96
2023/07/23 06:37:49;;;;;;;;;;;;;;;;;;;;;
2023/07/23 06:40:58;;;;;;;;;;;;;;;;;;;;;
2023/07/23 06:44:04;;;;;;;22.63;9.57;;;;;;;;;;6285982;22;20465;-96
2023/07/23 10:22:38;;;;;;;17.35;7.45;;;;;;;;;;6270574;22;20059;-96
2023/07/23 10:25:33;;;;;;;12.80;6.10;;;;;;;;;;6288692;22;20012;-94
2023/07/23 10:28:01;;;;;;;15.45;6.80;;;;;;;;;;6285710;22;20093;-94
2023/07/23 10:33:41;;;;;;;14.18;6.38;;;;;;;;;;6226646;22;20036;-95
2023/07/23 10:36:14;;;;;;;17.08;7.88;;;;;;;;;;6171449;23;20016;-96
2023/07/23 10:38:41;;;;;;;17.52;7.05;;;;;;;;;;6198786;23;20042;-96
2023/07/23 10:41:07;;;;;;;25.35;8.63;;;;;;;;;;6195878;23;20012;-95
2023/07/23 10:43:38;;;;;;;12.85;6.28;;;;;;;;;;6171823;23;20015;-95
2023/07/23 10:46:11;;;;;;;13.73;6.50;;;;;;;;;;6195430;23;20004;-95
2023/07/23 10:48:41;;;;;;;13.48;7.57;;;;;;;;;;6197725;23;20004;-94
2023/07/23 10:51:11;;;;;;;16.10;5.57;;;;;;;;;;6130057;23;20016;-96
2023/07/23 10:54:05;;;;;;;12.50;6.28;;;;;;;;;;6131858;23;20008;-95
2023/07/23 10:56:40;;;;;;;8.40;4.35;;;;;;;;;;6049119;23;20010;-96
2023/07/23 10:59:06;;;;;;;;;;;;;;;;;;6127812;23;20026;-96
2023/07/23 11:01:43;;;;;;;12.48;6.85;;;;;;;;;;6109356;23;19926;-93
2023/07/23 11:04:20;;;;;;;12.25;5.18;;;;;;;;;;6081663;23;20081;-96
2023/07/23 11:07:00;;;;;;;10.68;5.63;;;;;;;;;;6104997;23;20017;-95
2023/07/23 11:09:35;;;;;;;11.10;5.95;;;;;;;;;;6101397;23;20037;-95
2023/07/23 11:12:05;;;;;;;11.57;5.60;;;;;;;;;;6100259;23;20014;-94
2023/07/23 11:14:53;;;;;;;13.48;5.60;;;;;;;;;;6099497;23;20013;-94
2023/07/23 11:17:19;;;;;;;17.58;7.47;;;;;;;;;;6101310;23;20002;-94
2023/07/23 11:19:46;;;;;;;13.25;6.80;;;;;;;;;;6102712;23;20029;-94
2023/07/23 11:22:15;;;;;;;14.40;5.28;;;;;;;;;;6135029;23;20001;-93
2023/07/23 11:24:41;;;;;;;17.98;6.85;;;;;;;;;;6142012;23;20018;-92
2023/07/23 11:27:10;;;;;;;11.85;6.63;;;;;;;;;;6130727;23;20006;-93
2023/07/23 11:29:41;;;;;;;13.77;6.97;;;;;;;;;;6167715;23;20004;-93
2023/07/23 11:32:07;;;;;;;13.77;7.10;;;;;;;;;;6187163;23;20005;-93
2023/07/23 11:34:36;;;;;;;30.00;7.03;;;;;;;;;;6161791;23;20028;-92
2023/07/23 11:37:41;;;;;;;11.98;5.60;;;;;;;;;;6164416;23;20004;-96
2023/07/23 15:48:42;;;;;;;4.47;2.33;;;;;;;;;;6278555;22;20374;-92
2023/07/23 16:04:08;;;;;;;;;;;;;;;;;;;;;
2023/07/23 16:10:31;;;;;;;;;;;;;;;;;;;;;
2023/07/23 16:17:04;;;;;;;;;;;;;;;;;;;;;
2023/07/23 16:32:29;;;;;;;;;;;;;;;;;;;;;
2023/07/23 16:58:21;;;;;;;9.20;2.63;;;;;;;;;;5875320;24;20513;-96
2023/07/23 17:16:36;;;;;;;5.68;2.63;;;;;;;;;;5884901;24;20128;-92
2023/07/23 17:19:02;;;;;;;6.72;1.83;;;;;;;;;;5849109;24;20045;-94
2023/07/23 17:21:29;;;;;;;7.05;3.00;;;;;;;;;;5879152;24;20021;-95
2023/07/23 17:23:57;;;;;;;9.73;3.20;;;;;;;;;;5959009;23;20023;-95
2023/07/23 17:26:24;;;;;;;5.43;2.40;;;;;;;;;;6130856;23;20006;-94
2023/07/23 17:29:08;;;;;;;7.65;2.47;;;;;;;;;;6153346;23;20009;-96
2023/07/23 17:31:35;;;;;;;5.70;2.67;;;;;;;;;;6137582;23;20013;-93
2023/07/23 17:34:04;;;;;;;5.88;2.53;;;;;;;;;;6159921;23;20029;-94
2023/07/23 17:36:30;;;;;;;8.38;2.90;;;;;;;;;;6161246;23;20005;-94
2023/07/23 17:38:57;;;;;;;9.00;2.95;;;;;;;;;;6160045;23;20515;-93
2023/07/23 17:41:29;;;;;;;8.40;3.00;;;;;;;;;;6161664;23;20014;-95
2023/07/23 17:43:58;;;;;;;11.85;2.88;;;;;;;;;;6159917;23;20235;-94
2023/07/23 17:46:27;;;;;;;9.30;2.88;;;;;;;;;;6159649;23;20079;-93
2023/07/23 17:48:55;;;;;;;6.05;2.80;;;;;;;;;;6165867;22;20013;-93
2023/07/23 17:51:21;;;;;;;10.18;2.80;;;;;;;;;;6221579;23;20004;-94
2023/07/23 17:53:47;;;;;;;9.70;2.55;;;;;;;;;;6195502;23;20296;-94
2023/07/23 17:56:13;;;;;;;9.15;3.00;;;;;;;;;;6239265;22;20441;-94
2023/07/23 17:58:43;;;;;;;5.95;2.13;;;;;;;;;;6250196;22;20438;-94
2023/07/23 18:01:12;;;;;;;6.72;2.97;;;;;;;;;;6252378;22;20016;-94
2023/07/23 18:03:38;;;;;;;8.38;2.58;;;;;;;;;;6250598;22;20046;-94
2023/07/23 18:06:07;;;;;;;6.63;2.95;;;;;;;;;;6251980;22;20075;-93
2023/07/23 18:08:33;;;;;;;5.47;2.95;;;;;;;;;;6250931;22;20038;-95
2023/07/23 18:10:59;;;;;;;7.28;3.10;;;;;;;;;;6252191;22;20016;-93
2023/07/23 18:13:34;;;;;;;7.63;3.25;;;;;;;;;;6250443;22;20027;-94
2023/07/23 18:16:01;;;;;;;14.77;4.43;;;;;;;;;;6251283;22;20107;-95
2023/07/23 18:18:28;;;;;;;7.65;2.83;;;;;;;;;;6278765;22;20035;-93
2023/07/23 18:21:03;;;;;;;7.00;2.30;;;;;;;;;;6277278;22;20092;-93
2023/07/23 18:23:32;;;;;;;9.00;2.58;;;;;;;;;;6252460;22;20012;-94
2023/07/23 18:25:58;;;;;;;6.47;1.67;;;;;;;;;;6277198;22;20008;-94
2023/07/23 18:28:31;;;;;;;5.80;2.33;;;;;;;;;;6252385;22;20011;-94
2023/07/23 18:30:58;;;;;;;4.32;2.20;;;;;;;;;;6252892;22;20012;-94
2023/07/23 18:33:37;;;;;;;7.40;2.58;;;;;;;;;;6277763;22;20004;-93
2023/07/23 18:36:03;;;;;;;5.25;1.75;;;;;;;;;;6252807;22;20000;-94
2023/07/23 18:38:29;;;;;;;7.25;3.08;;;;;;;;;;6251894;22;20058;-94
2023/07/23 18:40:59;;;;;;;9.55;3.45;;;;;;;;;;6276074;22;20035;-94
2023/07/23 18:43:25;;;;;;;13.02;2.75;;;;;;;;;;6277385;22;20014;-93
2023/07/23 18:45:58;;;;;;;6.93;2.95;;;;;;;;;;6278824;22;20030;-94
2023/07/23 18:48:24;;;;;;;16.40;5.88;;;;;;;;;;6254752;22;20023;-94
2023/07/23 18:50:58;;;;;;;7.10;2.65;;;;;;;;;;6255031;22;20043;-94
2023/07/23 18:53:30;;;;;;;9.95;2.70;;;;;;;;;;6280122;22;20047;-93
2023/07/23 18:55:56;;;;;;;5.28;2.45;;;;;;;;;;6258569;22;20018;-93
2023/07/23 18:58:31;;;;;;;6.22;1.88;;;;;;;;;;6285760;22;20027;-96
2023/07/23 19:04:25;;;;;;;;;;;;;;;;;;6119357;23;20273;-91
2023/07/23 19:07:03;;;;;;;;;;;;;;;;;;;;;
2023/07/23 19:09:39;;;;;;;;;;;;;;;;;;;;;
2023/07/23 19:12:06;;;;;;;7.57;2.70;;;;;;;;;;6274112;22;20036;-91
2023/07/23 19:14:49;;;;;;;6.38;2.25;;;;;;;;;;6278601;22;20004;-92
2023/07/23 19:17:23;;;;;;;6.80;2.10;;;;;;;;;;6253934;22;20010;-91
2023/07/23 19:20:17;;;;;;;7.80;2.25;;;;;;;;;;6256178;22;20007;-92
2023/07/23 19:22:43;;;;;;;5.00;1.98;;;;;;;;;;6278091;22;20012;-92
2023/07/23 19:25:18;;;;;;;14.93;2.20;;;;;;;;;;6254193;22;20011;-92
2023/07/23 19:27:45;;;;;;;4.40;2.88;;;;;;;;;;6255023;22;20007;-92
2023/07/23 19:30:15;;;;;;;5.32;1.85;;;;;;;;;;6252839;22;20007;-91
2023/07/23 19:32:55;;;;;;;6.10;2.13;;;;;;;;;;6252965;22;20018;-92
2023/07/23 19:35:31;;;;;;;6.65;2.50;;;;;;;;;;6278409;22;20000;-91
2023/07/23 19:38:16;;;;;;;;;;;;;;;;;;;;;
2023/07/23 19:44:26;;;;;;;9.43;1.98;;;;;;;;;;6278434;22;20559;-92
2023/07/23 19:47:15;;;;;;;;;;;;;;;;;;;;;
2023/07/23 19:50:02;;;;;;;4.55;2.00;;;;;;;;;;6285596;22;20050;-89
2023/07/23 19:55:57;;;;;;;4.00;2.13;;;;;;;;;;6277534;22;20015;-93
2023/07/23 20:01:16;;;;;;;6.63;1.85;;;;;;;;;;6275743;22;20007;-92
2023/07/23 20:03:56;;;;;;;3.65;1.95;;;;;;;;;;6273366;22;20319;-92
2023/07/23 20:06:34;;;;;;;6.80;2.15;;;;;;;;;;6275542;22;20008;-92
2023/07/23 20:09:06;;;;;;;4.57;1.65;;;;;;;;;;6251483;22;20153;-92
2023/07/23 20:11:35;;;;;;;2.45;1.70;;;;;;;;;;6274911;22;20011;-90
2023/07/23 20:14:04;;;;;;;6.18;2.05;;;;;;;;;;6275144;22;20008;-91
2023/07/23 20:16:33;;;;;;;7.10;1.90;;;;;;;;;;6273686;22;20014;-91
2023/07/23 20:19:08;;;;;;;4.32;1.83;;;;;;;;;;6279893;22;20003;-92
2023/07/23 20:21:52;;;;;;;6.57;2.43;;;;;;;;;;6252232;22;20023;-95
2023/07/23 20:24:34;;;;;;;;;;;;;;;;;;;;;
2023/07/23 20:31:00;;;;;;;;;;;;;;;;;;;;;
2023/07/23 20:33:45;;;;;;;;;;;;;;;;;;;;;
2023/07/23 20:36:31;;;;;;;;;;;;;;;;;;;;;
2023/07/23 20:40:12;;;;;;;;;;;;;;;;;;;;;
2023/07/23 20:42:29;;;;;;;2.80;1.93;;;;;;;;;;6247595;22;20020;-94
2023/07/23 20:49:05;;;;;;;4.97;2.70;;;;;;;;;;6096872;23;20014;-94
2023/07/23 20:52:31;;;;;;;;;;;;;;;;;;;;;
2023/07/23 20:55:15;;;;;;;3.63;2.22;;;;;;;;;;5994752;23;20274;-95
2023/07/23 21:04:10;;;;;;;;;;;;;;;;;;;;;
2023/07/23 21:09:57;;;;;;;4.50;2.63;;;;;;;;;;6173816;23;20040;-95
2023/07/23 21:12:42;;;;;;;;;;;;;;;;;;;;;
2023/07/23 21:15:32;;;;;;;5.23;2.57;;;;;;;;;;6242378;23;20104;-93
2023/07/23 21:18:01;;;;;;;8.00;2.80;;;;;;;;;;6186812;23;20143;-94
2023/07/23 21:20:49;;;;;;;5.38;2.78;;;;;;;;;;6193501;23;20038;-93
2023/07/23 21:23:19;;;;;;;5.43;2.90;;;;;;;;;;6262100;22;20034;-94
2023/07/23 21:26:01;;;;;;;6.65;2.85;;;;;;;;;;6275572;22;20060;-94
2023/07/23 21:31:47;;;;;;;9.90;2.65;;;;;;;;;;6268297;22;20011;-94
2023/07/23 21:34:37;;;;;;;6.15;2.33;;;;;;;;;;6275850;22;20008;-94
2023/07/23 21:40:37;;;;;;;6.07;3.17;;;;;;;;;;6167306;23;20348;-93
2023/07/23 21:43:43;;;;;;;6.22;2.92;;;;;;;;;;6213769;22;20014;-93
2023/07/23 21:46:59;;;;;;;11.77;3.90;;;;;;;;;;6274978;22;20010;-93
2023/07/23 21:52:29;;;;;;;12.50;3.70;;;;;;;;;;6182541;23;20017;-94
2023/07/23 21:55:20;;;;;;;15.75;4.55;;;;;;;;;;6159517;23;20196;-94
2023/07/23 21:58:03;;;;;;;11.07;4.07;;;;;;;;;;6136290;23;20009;-95
2023/07/23 23:31:24;;;;;;;13.55;5.93;;;;;;;;;;6280416;22;20042;-96
2023/07/23 23:33:50;;;;;;;13.07;5.28;;;;;;;;;;6256680;22;20020;-96
2023/07/23 23:36:16;;;;;;;9.50;4.72;;;;;;;;;;6254846;22;20018;-95
2023/07/23 23:38:49;;;;;;;8.55;4.15;;;;;;;;;;6255012;22;20011;-95
2023/07/23 23:41:15;;;;;;;20.83;5.90;;;;;;;;;;6281205;22;20087;-96
2023/07/23 23:43:41;;;;;;;12.15;5.97;;;;;;;;;;6280709;22;20061;-96
2023/07/23 23:46:07;;;;;;;12.27;5.80;;;;;;;;;;6280536;22;20080;-96
2023/07/23 23:48:34;;;;;;;11.35;5.03;;;;;;;;;;6254532;22;20008;-95
2023/07/23 23:51:00;;;;;;;13.80;6.07;;;;;;;;;;6280127;22;20008;-95
2023/07/23 23:53:31;;;;;;;15.90;6.15;;;;;;;;;;6280262;22;20007;-95
2023/07/23 23:55:57;;;;;;;13.48;4.97;;;;;;;;;;6280744;22;20027;-95
2023/07/23 23:58:23;;;;;;;10.98;4.97;;;;;;;;;;6254193;22;20005;-95
